createdAt,value
2019-02-24T00:00:09.519Z,39.79
2019-02-24T00:02:40.249Z,39.94
2019-02-24T00:05:09.700Z,39.36
2019-02-24T00:07:38.820Z,39.71
2019-02-24T00:10:08.190Z,39.75
2019-02-24T00:12:37.307Z,40.26
2019-02-24T00:15:08.266Z,40.08
2019-02-24T00:17:37.385Z,40.02
2019-02-24T00:20:07.472Z,40.75
2019-02-24T00:22:36.592Z,40.94
2019-02-24T00:25:05.767Z,40.57
2019-02-24T00:27:34.899Z,41.14
2019-02-24T00:30:06.422Z,40.78
2019-02-24T00:32:35.543Z,41.13
2019-02-24T00:35:05.592Z,40.93
2019-02-24T00:37:34.713Z,41.28
2019-02-24T00:40:05.270Z,41.48
2019-02-24T00:42:34.656Z,41.36
2019-02-24T00:45:04.405Z,41.85
2019-02-24T00:47:33.592Z,41.86
2019-02-24T00:50:02.950Z,41.72
2019-02-24T00:52:33.035Z,41.45
2019-02-24T00:55:02.148Z,41.25
2019-02-24T00:57:31.264Z,41.12
2019-02-24T01:00:00.381Z,41.26
2019-02-24T01:02:29.507Z,41.13
2019-02-24T01:04:58.627Z,40.83
2019-02-24T01:07:27.751Z,40.91
2019-02-24T01:09:56.902Z,40.91
2019-02-24T01:12:26.025Z,40.48
2019-02-24T01:14:55.145Z,40.52
2019-02-24T01:17:25.240Z,40.52
2019-02-24T01:19:54.362Z,40.76
2019-02-24T01:22:23.489Z,40.78
2019-02-24T01:24:52.602Z,40.81
2019-02-24T01:27:21.724Z,41.08
2019-02-24T01:29:50.845Z,41.04
2019-02-24T01:32:19.972Z,41.46
2019-02-24T01:34:49.354Z,41.14
2019-02-24T01:37:18.770Z,40.83
2019-02-24T01:39:47.886Z,40.63
2019-02-24T01:42:17.023Z,40.71
2019-02-24T01:44:46.455Z,40.56
2019-02-24T01:47:15.572Z,40.31
2019-02-24T01:49:44.686Z,40.52
2019-02-24T01:52:14.054Z,40.46
2019-02-24T01:54:44.142Z,40.26
2019-02-24T01:57:13.273Z,40.36
2019-02-24T01:59:42.389Z,39.90
2019-02-24T02:02:11.504Z,39.89
2019-02-24T02:04:40.619Z,39.60
2019-02-24T02:07:09.738Z,40.63
2019-02-24T02:09:38.858Z,40.20
2019-02-24T02:12:11.181Z,39.94
2019-02-24T02:14:40.348Z,39.96
2019-02-24T02:17:09.420Z,39.62
2019-02-24T02:19:39.509Z,39.66
2019-02-24T02:22:08.620Z,39.92
2019-02-24T02:24:38.051Z,40.54
2019-02-24T02:27:07.441Z,40.01
2019-02-24T02:29:37.062Z,39.50
2019-02-24T02:32:06.181Z,40.42
2019-02-24T02:34:35.297Z,39.28
2019-02-24T02:37:04.416Z,39.26
2019-02-24T02:39:33.536Z,39.04
2019-02-24T02:42:03.043Z,39.34
2019-02-24T02:44:32.174Z,39.29
2019-02-24T02:47:02.269Z,39.47
2019-02-24T02:49:31.387Z,38.69
2019-02-24T02:52:00.507Z,38.83
2019-02-24T02:54:29.686Z,38.60
2019-02-24T02:56:58.825Z,38.60
2019-02-24T02:59:27.948Z,38.67
2019-02-24T03:01:58.112Z,38.63
2019-02-24T03:04:27.235Z,38.48
2019-02-24T03:07:13.938Z,38.39
2019-02-24T03:09:43.064Z,38.48
2019-02-24T03:12:12.484Z,38.19
2019-02-24T03:14:41.610Z,38.28
2019-02-24T03:17:10.732Z,38.24
2019-02-24T03:19:39.860Z,38.23
2019-02-24T03:22:08.985Z,37.80
2019-02-24T03:24:38.199Z,37.75
2019-02-24T03:27:07.314Z,37.96
2019-02-24T03:29:36.438Z,38.36
2019-02-24T03:32:05.599Z,37.98
2019-02-24T03:34:34.703Z,38.04
2019-02-24T03:37:03.844Z,37.75
2019-02-24T03:39:33.307Z,37.81
2019-02-24T03:42:02.431Z,38.00
2019-02-24T03:44:31.556Z,37.53
2019-02-24T03:47:00.680Z,37.86
2019-02-24T03:49:29.795Z,37.75
2019-02-24T03:51:59.249Z,37.60
2019-02-24T03:54:28.479Z,37.14
2019-02-24T03:56:57.617Z,37.18
2019-02-24T03:59:26.769Z,37.75
2019-02-24T04:01:55.946Z,37.40
2019-02-24T04:04:25.067Z,37.44
2019-02-24T04:06:54.412Z,37.53
2019-02-24T04:09:24.607Z,37.66
2019-02-24T04:11:53.724Z,37.46
2019-02-24T04:14:23.167Z,37.49
2019-02-24T04:16:52.288Z,37.31
2019-02-24T04:19:21.402Z,36.97
2019-02-24T04:21:50.529Z,37.17
2019-02-24T04:24:19.657Z,36.79
2019-02-24T04:26:48.774Z,37.46
2019-02-24T04:29:24.535Z,36.85
2019-02-24T04:31:48.742Z,37.18
2019-02-24T04:34:17.862Z,36.93
2019-02-24T04:36:46.984Z,37.32
2019-02-24T04:39:16.112Z,37.46
2019-02-24T04:41:45.237Z,37.33
2019-02-24T04:44:15.418Z,37.29
2019-02-24T04:46:44.533Z,37.30
2019-02-24T04:49:13.651Z,37.01
2019-02-24T04:51:43.003Z,36.76
2019-02-24T04:54:12.118Z,37.48
2019-02-24T04:56:41.247Z,37.37
2019-02-24T04:59:10.363Z,37.02
2019-02-24T05:01:39.484Z,36.88
2019-02-24T05:04:08.604Z,37.54
2019-02-24T05:06:37.729Z,37.55
2019-02-24T05:09:06.848Z,37.26
2019-02-24T05:11:35.979Z,37.44
2019-02-24T05:14:05.095Z,37.44
2019-02-24T05:16:34.222Z,37.24
2019-02-24T05:19:03.671Z,37.46
2019-02-24T05:21:32.799Z,38.49
2019-02-24T05:24:01.911Z,39.20
2019-02-24T05:26:31.033Z,39.74
2019-02-24T05:29:00.180Z,39.67
2019-02-24T05:31:29.569Z,40.36
2019-02-24T05:33:59.995Z,40.46
2019-02-24T05:36:31.311Z,40.28
2019-02-24T05:39:00.902Z,39.49
2019-02-24T05:41:31.648Z,38.62
2019-02-24T05:44:00.774Z,39.37
2019-02-24T05:46:29.911Z,39.01
2019-02-24T05:48:59.030Z,38.96
2019-02-24T05:51:28.156Z,39.33
2019-02-24T05:53:57.575Z,39.02
2019-02-24T05:56:26.700Z,38.34
2019-02-24T05:58:55.820Z,38.92
2019-02-24T06:01:24.958Z,38.41
2019-02-24T06:03:54.081Z,37.94
2019-02-24T06:06:23.280Z,38.23
2019-02-24T06:08:52.411Z,38.13
2019-02-24T06:11:21.541Z,38.41
2019-02-24T06:13:52.164Z,39.07
2019-02-24T06:16:21.452Z,38.14
2019-02-24T06:18:50.900Z,38.45
2019-02-24T06:21:20.110Z,37.76
2019-02-24T06:23:49.252Z,37.94
2019-02-24T06:26:18.373Z,37.75
2019-02-24T06:28:47.479Z,38.04
2019-02-24T06:31:17.050Z,38.34
2019-02-24T06:33:46.614Z,37.87
2019-02-24T06:36:15.938Z,38.59
2019-02-24T06:38:45.266Z,38.55
2019-02-24T06:41:14.593Z,39.94
2019-02-24T06:43:43.924Z,39.64
2019-02-24T06:46:13.485Z,39.68
2019-02-24T06:48:43.128Z,40.91
2019-02-24T06:51:12.621Z,40.31
2019-02-24T06:53:41.955Z,40.35
2019-02-24T06:56:11.283Z,40.38
2019-02-24T06:58:40.947Z,40.09
2019-02-24T07:01:10.279Z,40.50
2019-02-24T07:03:39.752Z,40.48
2019-02-24T07:06:09.082Z,40.88
2019-02-24T07:08:38.423Z,40.21
2019-02-24T07:11:07.795Z,40.32
2019-02-24T07:13:37.431Z,39.55
2019-02-24T07:16:07.090Z,39.81
2019-02-24T07:18:36.710Z,38.82
2019-02-24T07:21:06.046Z,39.31
2019-02-24T07:23:35.395Z,39.00
2019-02-24T07:26:04.738Z,39.98
2019-02-24T07:28:34.082Z,38.98
2019-02-24T07:31:03.414Z,40.15
2019-02-24T07:33:32.774Z,38.71
2019-02-24T07:36:02.101Z,37.79
2019-02-24T07:38:31.523Z,37.30
2019-02-24T07:41:00.851Z,36.82
2019-02-24T07:43:30.360Z,38.46
2019-02-24T07:46:00.026Z,37.09
2019-02-24T07:48:29.666Z,35.53
2019-02-24T07:50:59.968Z,35.39
2019-02-24T07:53:29.543Z,35.66
2019-02-24T07:55:58.889Z,34.76
2019-02-24T07:58:28.302Z,36.02
2019-02-24T08:00:57.663Z,35.03
2019-02-24T08:03:27.223Z,33.96
2019-02-24T08:05:56.554Z,33.92
2019-02-24T08:08:25.885Z,34.34
2019-02-24T08:10:55.225Z,34.08
2019-02-24T08:13:24.614Z,33.65
2019-02-24T08:15:54.202Z,33.14
2019-02-24T08:18:23.808Z,33.33
2019-02-24T08:20:53.409Z,33.00
2019-02-24T08:23:22.941Z,32.15
2019-02-24T08:25:52.343Z,32.29
2019-02-24T08:28:21.905Z,33.07
2019-02-24T08:30:51.237Z,32.82
2019-02-24T08:33:20.799Z,32.46
2019-02-24T08:35:50.363Z,32.49
2019-02-24T08:38:19.695Z,32.49
2019-02-24T08:40:49.026Z,31.59
2019-02-24T08:43:18.352Z,31.43
2019-02-24T08:45:47.691Z,31.62
2019-02-24T08:48:19.101Z,31.26
2019-02-24T08:50:48.342Z,30.83
2019-02-24T08:53:17.686Z,30.91
2019-02-24T08:55:47.027Z,30.27
2019-02-24T08:58:16.358Z,30.29
2019-02-24T09:00:50.980Z,30.76
2019-02-24T09:03:16.716Z,31.07
2019-02-24T09:05:46.304Z,30.86
2019-02-24T09:08:15.636Z,30.25
2019-02-24T09:10:45.210Z,30.33
2019-02-24T09:13:14.538Z,31.07
2019-02-24T09:15:44.136Z,29.94
2019-02-24T09:18:13.469Z,30.48
2019-02-24T09:20:42.804Z,31.12
2019-02-24T09:23:12.129Z,30.48
2019-02-24T09:25:41.468Z,28.73
2019-02-24T09:28:10.796Z,29.63
2019-02-24T09:30:41.721Z,28.74
2019-02-24T09:33:11.078Z,29.24
2019-02-24T09:35:40.427Z,28.20
2019-02-24T09:38:09.804Z,28.95
2019-02-24T09:40:39.134Z,28.63
2019-02-24T09:43:08.470Z,28.00
2019-02-24T09:45:37.809Z,27.86
2019-02-24T09:48:07.133Z,26.88
2019-02-24T09:50:36.462Z,27.68
2019-02-24T09:53:06.059Z,27.89
2019-02-24T09:55:35.391Z,27.41
2019-02-24T09:58:04.975Z,27.39
2019-02-24T10:00:34.299Z,27.29
2019-02-24T10:03:03.617Z,26.41
2019-02-24T10:05:32.947Z,26.04
2019-02-24T10:08:02.637Z,25.45
2019-02-24T10:10:31.955Z,25.37
2019-02-24T10:13:01.280Z,24.27
2019-02-24T10:15:30.952Z,24.20
2019-02-24T10:18:00.284Z,24.19
2019-02-24T10:20:29.611Z,24.78
2019-02-24T10:22:58.956Z,23.72
2019-02-24T10:25:28.568Z,24.55
2019-02-24T10:27:58.163Z,23.73
2019-02-24T10:30:27.485Z,23.81
2019-02-24T10:32:56.815Z,24.49
2019-02-24T10:35:26.151Z,25.52
2019-02-24T10:37:55.724Z,25.19
2019-02-24T10:40:25.049Z,23.34
2019-02-24T10:42:54.452Z,25.25
2019-02-24T10:45:23.774Z,23.83
2019-02-24T10:47:53.118Z,23.65
2019-02-24T10:50:22.439Z,23.58
2019-02-24T10:52:52.025Z,23.16
2019-02-24T10:55:21.343Z,23.08
2019-02-24T10:57:51.145Z,22.57
2019-02-24T11:00:22.727Z,21.96
2019-02-24T11:02:52.130Z,23.00
2019-02-24T11:05:21.454Z,21.43
2019-02-24T11:07:50.865Z,20.28
2019-02-24T11:10:20.196Z,19.89
2019-02-24T11:12:49.761Z,21.50
2019-02-24T11:15:19.381Z,21.78
2019-02-24T11:17:48.723Z,19.19
2019-02-24T11:20:18.690Z,20.04
2019-02-24T11:22:48.282Z,20.67
2019-02-24T11:25:17.610Z,18.66
2019-02-24T11:27:46.962Z,19.06
2019-02-24T11:30:16.390Z,18.00
2019-02-24T11:32:45.689Z,15.32
2019-02-24T11:35:15.255Z,14.77
2019-02-24T11:37:44.581Z,15.22
2019-02-24T11:40:15.907Z,14.79
2019-02-24T11:42:45.541Z,13.03
2019-02-24T11:45:15.118Z,14.70
2019-02-24T11:47:44.676Z,14.15
2019-02-24T11:50:14.279Z,12.85
2019-02-24T11:52:43.853Z,11.33
2019-02-24T11:55:13.356Z,11.11
2019-02-24T11:57:42.682Z,11.96
2019-02-24T12:00:14.451Z,11.20
2019-02-24T12:02:43.862Z,12.21
2019-02-24T12:05:13.331Z,11.91
2019-02-24T12:07:42.910Z,12.53
2019-02-24T12:10:12.976Z,12.18
2019-02-24T12:12:42.354Z,10.50
2019-02-24T12:15:12.834Z,10.26
2019-02-24T12:17:43.234Z,10.26
2019-02-24T12:20:14.578Z,10.71
2019-02-24T12:22:43.919Z,9.18
2019-02-24T12:25:15.039Z,9.67
2019-02-24T12:27:44.354Z,10.07
2019-02-24T12:30:17.427Z,9.84
2019-02-24T12:32:46.987Z,9.88
2019-02-24T12:35:16.396Z,8.86
2019-02-24T12:37:46.038Z,9.27
2019-02-24T12:40:16.171Z,8.88
2019-02-24T12:42:45.749Z,9.06
2019-02-24T12:45:15.085Z,9.12
2019-02-24T12:47:44.639Z,9.33
2019-02-24T12:50:15.614Z,10.11
2019-02-24T12:52:44.953Z,8.36
2019-02-24T12:55:14.356Z,8.95
2019-02-24T12:57:44.055Z,9.62
2019-02-24T13:00:19.057Z,8.63
2019-02-24T13:02:48.454Z,8.94
2019-02-24T13:05:17.788Z,8.65
2019-02-24T13:07:47.109Z,9.20
2019-02-24T13:10:18.465Z,9.31
2019-02-24T13:12:47.788Z,8.76
2019-02-24T13:15:17.121Z,7.50
2019-02-24T13:17:46.451Z,7.29
2019-02-24T13:20:16.028Z,6.57
2019-02-24T13:22:45.356Z,7.56
2019-02-24T13:25:15.053Z,7.30
2019-02-24T13:27:44.378Z,7.58
2019-02-24T13:30:15.795Z,7.81
2019-02-24T13:32:45.369Z,7.59
2019-02-24T13:35:14.697Z,6.35
2019-02-24T13:37:45.099Z,5.97
2019-02-24T13:40:15.668Z,7.95
2019-02-24T13:42:45.042Z,6.30
2019-02-24T13:45:19.629Z,6.80
2019-02-24T13:47:48.957Z,7.31
2019-02-24T13:50:18.287Z,7.01
2019-02-24T13:52:47.616Z,6.11
2019-02-24T13:55:16.938Z,6.46
2019-02-24T13:57:46.496Z,6.43
2019-02-24T14:00:18.301Z,6.09
2019-02-24T14:02:47.642Z,6.55
2019-02-24T14:05:16.970Z,7.03
2019-02-24T14:07:46.295Z,7.03
2019-02-24T14:10:18.132Z,6.32
2019-02-24T14:12:47.465Z,6.13
2019-02-24T14:15:16.956Z,6.90
2019-02-24T14:17:46.532Z,6.30
2019-02-24T14:20:17.195Z,6.30
2019-02-24T14:22:46.516Z,6.37
2019-02-24T14:25:16.783Z,6.39
2019-02-24T14:27:46.116Z,6.77
2019-02-24T14:30:17.512Z,6.77
2019-02-24T14:32:46.852Z,6.25
2019-02-24T14:35:18.651Z,7.20
2019-02-24T14:37:47.981Z,6.96
2019-02-24T14:40:17.380Z,7.08
2019-02-24T14:42:46.785Z,7.15
2019-02-24T14:45:17.857Z,8.50
2019-02-24T14:47:47.187Z,8.71
2019-02-24T14:50:16.507Z,8.87
2019-02-24T14:52:46.074Z,9.57
2019-02-24T14:55:16.246Z,10.01
2019-02-24T14:57:45.804Z,10.88
2019-02-24T15:00:20.263Z,10.93
2019-02-24T15:02:49.891Z,10.44
2019-02-24T15:05:19.217Z,9.99
2019-02-24T15:07:48.558Z,10.32
2019-02-24T15:10:22.010Z,9.58
2019-02-24T15:12:51.564Z,9.62
2019-02-24T15:15:26.426Z,10.29
2019-02-24T15:17:56.654Z,11.86
2019-02-24T15:20:25.554Z,11.71
2019-02-24T15:22:54.886Z,12.04
2019-02-24T15:25:24.441Z,12.05
2019-02-24T15:27:54.019Z,12.51
2019-02-24T15:30:28.940Z,12.65
2019-02-24T15:32:58.271Z,13.13
2019-02-24T15:35:27.898Z,13.76
2019-02-24T15:37:57.396Z,12.83
2019-02-24T15:40:26.810Z,14.12
2019-02-24T15:42:56.444Z,15.10
2019-02-24T15:45:25.774Z,15.41
2019-02-24T15:47:55.126Z,14.10
2019-02-24T15:50:24.461Z,13.92
2019-02-24T15:52:53.818Z,15.24
2019-02-24T15:55:23.127Z,17.09
2019-02-24T15:57:52.702Z,15.54
2019-02-24T16:00:24.007Z,15.60
2019-02-24T16:03:01.181Z,15.01
2019-02-24T16:05:24.657Z,14.60
2019-02-24T16:07:54.261Z,13.57
2019-02-24T16:10:23.767Z,13.72
2019-02-24T16:12:53.659Z,14.37
2019-02-24T16:15:27.485Z,15.10
2019-02-24T16:17:56.887Z,15.67
2019-02-24T16:20:28.555Z,16.09
2019-02-24T16:22:57.951Z,16.08
2019-02-24T16:25:27.537Z,16.20
2019-02-24T16:27:56.936Z,16.92
2019-02-24T16:30:26.283Z,17.64
2019-02-24T16:32:55.687Z,18.03
2019-02-24T16:35:25.035Z,18.88
2019-02-24T16:37:54.424Z,19.56
2019-02-24T16:40:29.005Z,18.39
2019-02-24T16:42:58.414Z,18.63
2019-02-24T16:45:27.751Z,18.85
2019-02-24T16:47:57.151Z,19.16
2019-02-24T16:50:26.555Z,18.69
2019-02-24T16:52:55.887Z,19.70
2019-02-24T16:55:25.230Z,19.55
2019-02-24T16:57:54.561Z,19.16
2019-02-24T17:00:29.186Z,20.63
2019-02-24T17:02:58.567Z,21.76
2019-02-24T17:05:28.130Z,22.31
2019-02-24T17:07:57.672Z,23.26
2019-02-24T17:10:28.347Z,22.55
2019-02-24T17:12:57.838Z,22.84
2019-02-24T17:15:27.421Z,22.87
2019-02-24T17:17:56.970Z,23.90
2019-02-24T17:20:30.450Z,24.72
2019-02-24T17:23:00.024Z,25.61
2019-02-24T17:25:29.358Z,24.70
2019-02-24T17:27:58.679Z,25.55
2019-02-24T17:30:28.979Z,26.33
2019-02-24T17:32:58.311Z,26.12
2019-02-24T17:35:27.649Z,26.44
2019-02-24T17:37:56.983Z,26.94
2019-02-24T17:40:26.317Z,27.26
2019-02-24T17:42:55.646Z,27.21
2019-02-24T17:45:24.978Z,28.35
2019-02-24T17:47:54.314Z,27.71
2019-02-24T17:50:23.651Z,27.85
2019-02-24T17:52:53.011Z,28.33
2019-02-24T17:55:22.810Z,28.80
2019-02-24T17:57:52.444Z,28.65
2019-02-24T18:00:43.127Z,28.88
2019-02-24T18:03:12.670Z,29.05
2019-02-24T18:05:42.063Z,30.06
2019-02-24T18:08:11.401Z,29.96
2019-02-24T18:10:40.743Z,30.06
2019-02-24T18:13:10.075Z,30.41
2019-02-24T18:15:39.727Z,30.74
2019-02-24T18:18:09.058Z,31.27
2019-02-24T18:20:39.371Z,31.63
2019-02-24T18:23:10.005Z,32.20
2019-02-24T18:25:40.314Z,33.22
2019-02-24T18:28:09.642Z,33.62
2019-02-24T18:30:39.288Z,33.78
2019-02-24T18:33:08.621Z,33.56
2019-02-24T18:35:37.957Z,33.49
2019-02-24T18:38:07.538Z,33.28
2019-02-24T18:40:36.879Z,33.29
2019-02-24T18:43:06.215Z,32.82
2019-02-24T18:45:35.781Z,32.60
2019-02-24T18:48:05.116Z,33.11
2019-02-24T18:50:34.689Z,32.72
2019-02-24T18:53:04.033Z,32.64
2019-02-24T18:55:33.433Z,33.07
2019-02-24T18:58:02.765Z,33.12
2019-02-24T19:00:32.667Z,33.03
2019-02-24T19:03:02.155Z,33.25
2019-02-24T19:05:31.491Z,33.81
2019-02-24T19:08:00.827Z,31.80
2019-02-24T19:10:30.159Z,32.98
2019-02-24T19:12:59.494Z,33.22
2019-02-24T19:15:29.795Z,33.00
2019-02-24T19:17:59.136Z,33.51
2019-02-24T19:20:28.506Z,33.21
2019-02-24T19:22:57.857Z,33.62
2019-02-24T19:25:27.188Z,33.63
2019-02-24T19:27:56.514Z,34.06
2019-02-24T19:30:25.836Z,34.17
2019-02-24T19:32:55.238Z,34.55
2019-02-24T19:35:24.566Z,34.14
2019-02-24T19:37:53.900Z,34.20
2019-02-24T19:40:23.295Z,34.90
2019-02-24T19:42:52.676Z,35.12
2019-02-24T19:45:26.653Z,35.85
2019-02-24T19:47:56.234Z,36.36
2019-02-24T19:50:25.659Z,36.72
2019-02-24T19:52:55.233Z,36.89
2019-02-24T19:55:24.805Z,37.49
2019-02-24T19:57:54.144Z,37.88
2019-02-24T20:00:24.706Z,37.23
2019-02-24T20:02:54.114Z,37.37
2019-02-24T20:05:23.512Z,38.21
2019-02-24T20:07:54.746Z,38.65
2019-02-24T20:10:27.798Z,39.31
2019-02-24T20:12:57.208Z,39.85
2019-02-24T20:15:26.958Z,40.50
2019-02-24T20:17:56.288Z,40.63
2019-02-24T20:20:25.974Z,40.75
2019-02-24T20:22:55.302Z,40.64
2019-02-24T20:25:24.751Z,41.02
2019-02-24T20:27:54.036Z,41.10
2019-02-24T20:30:30.818Z,40.99
2019-02-24T20:33:00.144Z,40.50
2019-02-24T20:35:29.479Z,40.82
2019-02-24T20:37:59.161Z,41.07
2019-02-24T20:40:28.593Z,41.08
2019-02-24T20:42:57.927Z,41.03
2019-02-24T20:45:29.198Z,41.96
2019-02-24T20:47:58.615Z,42.23
2019-02-24T20:50:30.433Z,42.74
2019-02-24T20:52:59.804Z,41.65
2019-02-24T20:55:29.138Z,42.01
2019-02-24T20:57:58.504Z,42.33
2019-02-24T21:00:33.436Z,42.15
2019-02-24T21:03:02.994Z,42.07
2019-02-24T21:05:32.334Z,41.98
2019-02-24T21:08:01.670Z,42.32
2019-02-24T21:10:31.073Z,42.37
2019-02-24T21:13:00.742Z,42.78
2019-02-24T21:15:30.306Z,43.01
2019-02-24T21:17:59.638Z,42.84
2019-02-24T21:20:33.564Z,43.21
2019-02-24T21:23:02.983Z,43.50
2019-02-24T21:25:32.323Z,43.81
2019-02-24T21:28:01.726Z,44.66
2019-02-24T21:30:31.841Z,44.88
2019-02-24T21:33:01.268Z,45.72
2019-02-24T21:35:31.584Z,46.12
2019-02-24T21:38:00.941Z,46.00
2019-02-24T21:40:31.384Z,46.38
2019-02-24T21:43:00.779Z,46.18
2019-02-24T21:45:30.986Z,46.55
2019-02-24T21:48:00.319Z,46.64
2019-02-24T21:50:29.719Z,47.05
2019-02-24T21:52:59.303Z,46.90
2019-02-24T21:55:28.662Z,47.31
2019-02-24T21:57:57.990Z,47.96
2019-02-24T22:00:27.636Z,48.52
2019-02-24T22:02:57.214Z,49.08
2019-02-24T22:05:26.596Z,48.73
2019-02-24T22:07:55.979Z,48.81
2019-02-24T22:10:25.270Z,48.67
2019-02-24T22:12:54.598Z,48.69
2019-02-24T22:15:25.805Z,48.14
2019-02-24T22:17:55.138Z,47.98
2019-02-24T22:20:24.472Z,48.18
2019-02-24T22:22:53.823Z,48.61
2019-02-24T22:25:23.164Z,48.11
2019-02-24T22:27:52.509Z,49.12
2019-02-24T22:30:22.897Z,49.90
2019-02-24T22:32:52.241Z,50.79
2019-02-24T22:35:21.574Z,50.83
2019-02-24T22:37:50.919Z,50.66
2019-02-24T22:40:20.342Z,49.56
2019-02-24T22:42:49.928Z,50.32
2019-02-24T22:45:20.272Z,50.71
2019-02-24T22:47:49.784Z,50.83
2019-02-24T22:50:19.117Z,50.99
2019-02-24T22:52:48.494Z,50.20
2019-02-24T22:55:19.009Z,51.25
2019-02-24T22:57:48.341Z,50.84
2019-02-24T23:00:52.345Z,50.98
2019-02-24T23:03:32.029Z,50.99
2019-02-24T23:06:01.606Z,51.31
2019-02-24T23:08:30.942Z,51.88
2019-02-24T23:11:00.276Z,52.20
2019-02-24T23:13:29.619Z,52.28
2019-02-24T23:15:58.991Z,52.25
2019-02-24T23:18:28.341Z,52.45
2019-02-24T23:20:57.701Z,52.69
2019-02-24T23:23:27.038Z,52.87
2019-02-24T23:25:56.367Z,52.96
2019-02-24T23:28:26.094Z,53.50
2019-02-24T23:30:55.501Z,53.24
2019-02-24T23:33:24.835Z,53.37
2019-02-24T23:35:54.166Z,53.30
2019-02-24T23:38:23.500Z,53.27
2019-02-24T23:40:53.117Z,53.89
2019-02-24T23:43:22.456Z,54.17
2019-02-24T23:45:51.800Z,54.31
2019-02-24T23:48:21.121Z,54.79
2019-02-24T23:50:50.469Z,55.53
2019-02-24T23:53:19.799Z,55.35
2019-02-24T23:55:49.374Z,54.85
2019-02-24T23:58:18.714Z,55.49
